Time,TemperatureF,DewpointF,PressureIn,WindDirection,WindDirectionDegrees,WindSpeedMPH,WindSpeedGustMPH,Humidity,HourlyPrecipIn,Conditions,Clouds,dailyrainin,SoftwareType,DateUTC
2013-09-07 00:14:00,62.0,61.0,29.82,SE,141,0.0,2.0,96,0.06,,,0.01,weatherlink.com 1.10,2013-09-07 04:14:00,
2013-09-07 00:29:00,61.7,61.0,29.83,NW,323,0.0,1.0,96,0.07,,,0.02,weatherlink.com 1.10,2013-09-07 04:29:00,
2013-09-07 00:44:00,61.6,61.0,29.82,West,271,0.0,1.0,97,0.05,,,0.04,weatherlink.com 1.10,2013-09-07 04:44:00,
2013-09-07 00:59:00,61.6,61.0,29.82,East,98,1.0,2.0,97,0.05,,,0.05,weatherlink.com 1.10,2013-09-07 04:59:00,
2013-09-07 01:14:00,61.9,61.0,29.81,ESE,108,2.0,3.0,97,0.04,,,0.05,weatherlink.com 1.10,2013-09-07 05:14:00,
2013-09-07 01:29:00,62.0,61.0,29.81,ESE,117,5.0,7.0,97,0.03,,,0.05,weatherlink.com 1.10,2013-09-07 05:29:00,
2013-09-07 01:44:00,61.8,61.0,29.80,SSE,162,2.0,8.0,97,0.01,,,0.05,weatherlink.com 1.10,2013-09-07 05:44:00,
2013-09-07 01:59:00,61.7,61.0,29.80,SE,145,4.0,6.0,97,0.00,,,0.05,weatherlink.com 1.10,2013-09-07 05:59:00,
2013-09-07 02:14:00,61.8,61.0,29.79,ESE,115,2.0,4.0,97,0.01,,,0.06,weatherlink.com 1.10,2013-09-07 06:14:00,
2013-09-07 02:29:00,61.6,61.0,29.79,SE,127,3.0,5.0,96,0.01,,,0.06,weatherlink.com 1.10,2013-09-07 06:29:00,
2013-09-07 02:44:00,61.3,60.0,29.78,ESE,121,0.0,4.0,96,0.01,,,0.06,weatherlink.com 1.10,2013-09-07 06:44:00,
2013-09-07 03:00:00,61.2,60.0,29.78,SSE,155,0.0,1.0,96,0.01,,,0.06,weatherlink.com 1.10,2013-09-07 07:00:00,
2013-09-07 03:15:00,61.1,60.0,29.76,SE,141,1.0,4.0,97,0.00,,,0.06,weatherlink.com 1.10,2013-09-07 07:15:00,
2013-09-07 03:30:00,61.1,60.0,29.77,SSE,165,0.0,2.0,97,0.00,,,0.06,weatherlink.com 1.10,2013-09-07 07:30:00,
2013-09-07 03:45:00,61.0,60.0,29.77,South,172,1.0,2.0,97,0.00,,,0.06,weatherlink.com 1.10,2013-09-07 07:45:00,
2013-09-07 04:00:00,61.2,60.0,29.77,South,170,0.0,1.0,97,0.00,,,0.06,weatherlink.com 1.10,2013-09-07 08:00:00,
2013-09-07 04:15:00,61.3,61.0,29.76,NE,35,2.0,3.0,97,0.00,,,0.06,weatherlink.com 1.10,2013-09-07 08:15:00,
2013-09-07 04:30:00,61.4,60.0,29.76,East,100,0.0,2.0,96,0.00,,,0.06,weatherlink.com 1.10,2013-09-07 08:30:00,
2013-09-07 04:45:00,61.3,60.0,29.76,East,93,1.0,2.0,96,0.00,,,0.06,weatherlink.com 1.10,2013-09-07 08:45:00,
2013-09-07 05:00:00,61.4,60.0,29.75,East,95,0.0,2.0,96,0.00,,,0.06,weatherlink.com 1.10,2013-09-07 09:00:00,
2013-09-07 05:15:00,61.3,60.0,29.74,East,95,0.0,1.0,96,0.00,,,0.06,weatherlink.com 1.10,2013-09-07 09:15:00,
2013-09-07 05:30:00,61.1,60.0,29.73,ESE,114,1.0,2.0,96,0.00,,,0.06,weatherlink.com 1.10,2013-09-07 09:30:00,
2013-09-07 05:45:00,61.2,60.0,29.73,SE,146,0.0,2.0,96,0.00,,,0.06,weatherlink.com 1.10,2013-09-07 09:45:00,
2013-09-07 06:00:00,60.7,60.0,29.74,SSE,147,0.0,0.0,96,0.00,,,0.06,weatherlink.com 1.10,2013-09-07 10:00:00,
2013-09-07 06:15:00,60.6,60.0,29.74,SSW,203,0.0,0.0,97,0.00,,,0.06,weatherlink.com 1.10,2013-09-07 10:15:00,
2013-09-07 06:30:00,60.8,60.0,29.74,SSW,203,0.0,0.0,97,0.00,,,0.06,weatherlink.com 1.10,2013-09-07 10:30:00,
2013-09-07 06:45:00,61.2,60.0,29.74,ENE,76,0.0,2.0,97,0.00,,,0.06,weatherlink.com 1.10,2013-09-07 10:45:00,
2013-09-07 07:00:00,61.4,60.0,29.75,ENE,76,0.0,1.0,96,0.00,,,0.06,weatherlink.com 1.10,2013-09-07 11:00:00,
2013-09-07 07:15:00,61.6,61.0,29.76,ENE,77,0.0,0.0,96,0.00,,,0.06,weatherlink.com 1.10,2013-09-07 11:15:00,
2013-09-07 07:30:00,61.7,61.0,29.75,ENE,77,0.0,1.0,96,0.00,,,0.06,weatherlink.com 1.10,2013-09-07 11:30:00,
2013-09-07 07:45:00,61.8,61.0,29.75,ENE,63,0.0,2.0,96,0.00,,,0.06,weatherlink.com 1.10,2013-09-07 11:45:00,
2013-09-07 08:00:00,62.0,61.0,29.75,East,85,0.0,2.0,96,0.00,,,0.06,weatherlink.com 1.10,2013-09-07 12:00:00,
2013-09-07 08:15:00,62.1,61.0,29.75,ESE,110,0.0,0.0,96,0.00,,,0.06,weatherlink.com 1.10,2013-09-07 12:15:00,
2013-09-07 08:30:00,62.5,61.0,29.75,ESE,107,0.0,2.0,96,0.00,,,0.06,weatherlink.com 1.10,2013-09-07 12:30:00,
2013-09-07 08:45:00,62.5,61.0,29.75,ESE,104,0.0,1.0,96,0.00,,,0.06,weatherlink.com 1.10,2013-09-07 12:45:00,
2013-09-07 09:00:00,62.8,62.0,29.74,ESE,105,0.0,1.0,96,0.00,,,0.06,weatherlink.com 1.10,2013-09-07 13:00:00,
2013-09-07 09:15:00,63.1,62.0,29.73,SE,127,0.0,1.0,96,0.00,,,0.06,weatherlink.com 1.10,2013-09-07 13:15:00,
2013-09-07 09:30:00,63.7,63.0,29.73,SE,133,1.0,2.0,96,0.00,,,0.06,weatherlink.com 1.10,2013-09-07 13:30:00,
2013-09-07 09:45:00,64.0,63.0,29.73,SE,132,2.0,4.0,95,0.00,,,0.06,weatherlink.com 1.10,2013-09-07 13:45:00,
2013-09-07 10:00:00,64.6,63.0,29.73,ESE,104,1.0,2.0,95,0.00,,,0.06,weatherlink.com 1.10,2013-09-07 14:00:00,
2013-09-07 10:15:00,65.2,64.0,29.73,East,101,2.0,2.0,94,0.00,,,0.06,weatherlink.com 1.10,2013-09-07 14:15:00,
2013-09-07 10:30:00,65.5,64.0,29.75,East,91,0.0,1.0,94,0.00,,,0.06,weatherlink.com 1.10,2013-09-07 14:30:00,
2013-09-07 10:45:00,65.8,64.0,29.74,ESE,111,0.0,1.0,93,0.00,,,0.06,weatherlink.com 1.10,2013-09-07 14:45:00,
2013-09-07 11:00:00,65.3,63.0,29.75,North,359,1.0,2.0,93,0.00,,,0.06,weatherlink.com 1.10,2013-09-07 15:00:00,
2013-09-07 11:15:00,65.9,64.0,29.75,NNE,20,1.0,2.0,93,0.00,,,0.06,weatherlink.com 1.10,2013-09-07 15:15:00,
2013-09-07 11:30:00,65.6,64.0,29.75,North,351,2.0,2.0,94,0.00,,,0.06,weatherlink.com 1.10,2013-09-07 15:30:00,
2013-09-07 11:45:00,65.6,64.0,29.76,North,6,1.0,3.0,94,0.00,,,0.06,weatherlink.com 1.10,2013-09-07 15:45:00,
2013-09-07 12:00:00,65.7,64.0,29.77,NNW,340,2.0,3.0,94,0.00,,,0.06,weatherlink.com 1.10,2013-09-07 16:00:00,
2013-09-07 12:15:00,65.5,64.0,29.77,North,359,2.0,3.0,95,0.00,,,0.06,weatherlink.com 1.10,2013-09-07 16:15:00,
2013-09-07 12:30:00,65.6,64.0,29.77,North,359,2.0,3.0,95,0.00,,,0.06,weatherlink.com 1.10,2013-09-07 16:30:00,
2013-09-07 12:45:00,65.8,64.0,29.76,NNE,12,0.0,2.0,95,0.00,,,0.06,weatherlink.com 1.10,2013-09-07 16:45:00,
2013-09-07 13:00:00,66.3,64.0,29.77,NNW,345,2.0,5.0,93,0.00,,,0.06,weatherlink.com 1.10,2013-09-07 17:00:00,
2013-09-07 13:15:00,66.4,65.0,29.76,North,360,3.0,4.0,95,0.00,,,0.06,weatherlink.com 1.10,2013-09-07 17:15:00,
2013-09-07 13:30:00,66.4,65.0,29.75,North,349,3.0,4.0,94,0.00,,,0.06,weatherlink.com 1.10,2013-09-07 17:30:00,
2013-09-07 13:45:00,66.3,65.0,29.75,NNW,342,3.0,4.0,94,0.00,,,0.06,weatherlink.com 1.10,2013-09-07 17:45:00,
2013-09-07 14:00:00,66.7,65.0,29.75,North,11,1.0,4.0,94,0.00,,,0.06,weatherlink.com 1.10,2013-09-07 18:00:00,
2013-09-07 14:16:00,67.1,65.0,29.76,NNW,341,3.0,4.0,93,0.00,,,0.06,weatherlink.com 1.10,2013-09-07 18:16:00,
2013-09-07 14:31:00,67.3,65.0,29.76,NNE,18,2.0,5.0,91,0.00,,,0.06,weatherlink.com 1.10,2013-09-07 18:31:00,
2013-09-07 14:46:00,67.5,65.0,29.76,North,356,3.0,6.0,91,0.00,,,0.06,weatherlink.com 1.10,2013-09-07 18:46:00,
2013-09-07 15:01:00,67.7,65.0,29.76,NNE,12,2.0,5.0,92,0.00,,,0.06,weatherlink.com 1.10,2013-09-07 19:01:00,
2013-09-07 15:16:00,67.8,65.0,29.76,North,356,3.0,5.0,91,0.00,,,0.06,weatherlink.com 1.10,2013-09-07 19:16:00,
2013-09-07 15:33:00,67.7,65.0,29.76,North,7,0.0,2.0,92,0.00,,,0.06,weatherlink.com 1.10,2013-09-07 19:33:00,
2013-09-07 15:46:00,67.5,65.0,29.76,NNE,23,0.0,0.0,92,0.00,,,0.06,weatherlink.com 1.10,2013-09-07 19:46:00,
2013-09-07 16:01:00,68.3,66.0,29.76,NNE,25,0.0,0.0,92,0.00,,,0.06,weatherlink.com 1.10,2013-09-07 20:01:00,
2013-09-07 16:16:00,69.2,66.0,29.76,East,94,0.0,0.0,90,0.00,,,0.06,weatherlink.com 1.10,2013-09-07 20:16:00,
2013-09-07 16:31:00,70.4,67.0,29.75,West,278,0.0,0.0,88,0.00,,,0.06,weatherlink.com 1.10,2013-09-07 20:31:00,
2013-09-07 16:46:00,70.1,67.0,29.75,NE,49,2.0,2.0,88,0.00,,,0.06,weatherlink.com 1.10,2013-09-07 20:46:00,
2013-09-07 17:01:00,69.6,67.0,29.75,NNE,29,0.0,2.0,90,0.00,,,0.06,weatherlink.com 1.10,2013-09-07 21:01:00,
2013-09-07 17:16:00,70.1,67.0,29.75,NNE,29,0.0,0.0,88,0.00,,,0.06,weatherlink.com 1.10,2013-09-07 21:16:00,
2013-09-07 17:31:00,72.0,68.0,29.75,NE,40,0.0,0.0,86,0.00,,,0.06,weatherlink.com 1.10,2013-09-07 21:31:00,
2013-09-07 17:46:00,73.8,68.0,29.76,NNW,346,1.0,1.0,82,0.00,,,0.06,weatherlink.com 1.10,2013-09-07 21:46:00,
2013-09-07 18:01:00,74.0,68.0,29.76,West,269,0.0,3.0,82,0.00,,,0.06,weatherlink.com 1.10,2013-09-07 22:01:00,
2013-09-07 18:16:00,73.5,68.0,29.77,SW,229,0.0,4.0,84,0.00,,,0.06,weatherlink.com 1.10,2013-09-07 22:16:00,
2013-09-07 18:31:00,71.2,67.0,29.78,North,1,4.0,10.0,86,0.00,,,0.06,weatherlink.com 1.10,2013-09-07 22:31:00,
2013-09-07 18:46:00,69.3,66.0,29.79,ENE,64,0.0,8.0,89,0.00,,,0.06,weatherlink.com 1.10,2013-09-07 22:46:00,
2013-09-07 19:01:00,68.8,66.0,29.79,WSW,243,1.0,5.0,90,0.00,,,0.06,weatherlink.com 1.10,2013-09-07 23:01:00,
2013-09-07 19:16:00,68.6,66.0,29.79,WSW,244,0.0,4.0,90,0.00,,,0.06,weatherlink.com 1.10,2013-09-07 23:16:00,
2013-09-07 19:31:00,68.2,65.0,29.80,NW,310,3.0,5.0,90,0.00,,,0.06,weatherlink.com 1.10,2013-09-07 23:31:00,
2013-09-07 19:46:00,67.4,65.0,29.80,WNW,296,0.0,4.0,91,0.00,,,0.06,weatherlink.com 1.10,2013-09-07 23:46:00,
2013-09-07 20:01:00,66.8,65.0,29.81,WSW,248,1.0,4.0,92,0.00,,,0.06,weatherlink.com 1.10,2013-09-08 00:01:00,
2013-09-07 20:16:00,66.6,64.0,29.82,NE,34,1.0,2.0,92,0.00,,,0.06,weatherlink.com 1.10,2013-09-08 00:16:00,
2013-09-07 20:31:00,67.0,64.0,29.83,North,4,10.0,12.0,89,0.00,,,0.06,weatherlink.com 1.10,2013-09-08 00:31:00,
2013-09-07 20:46:00,66.9,63.0,29.84,North,3,9.0,11.0,86,0.00,,,0.06,weatherlink.com 1.10,2013-09-08 00:46:00,
2013-09-07 21:01:00,66.6,63.0,29.85,North,354,6.0,11.0,88,0.00,,,0.06,weatherlink.com 1.10,2013-09-08 01:01:00,
2013-09-07 21:16:00,66.3,61.0,29.86,North,360,11.0,19.0,82,0.00,,,0.06,weatherlink.com 1.10,2013-09-08 01:16:00,
2013-09-07 21:31:00,65.7,59.0,29.87,North,11,9.0,14.0,78,0.00,,,0.06,weatherlink.com 1.10,2013-09-08 01:31:00,
2013-09-07 21:46:00,65.4,58.0,29.88,NNE,19,8.0,11.0,78,0.00,,,0.06,weatherlink.com 1.10,2013-09-08 01:46:00,
2013-09-07 22:01:00,65.2,58.0,29.88,North,5,7.0,13.0,78,0.00,,,0.06,weatherlink.com 1.10,2013-09-08 02:01:00,
2013-09-07 22:16:00,65.0,59.0,29.89,North,11,6.0,8.0,80,0.00,,,0.06,weatherlink.com 1.10,2013-09-08 02:16:00,
2013-09-07 22:31:00,64.5,58.0,29.90,North,358,6.0,8.0,79,0.00,,,0.06,weatherlink.com 1.10,2013-09-08 02:31:00,
2013-09-07 22:46:00,64.2,58.0,29.90,North,349,4.0,7.0,79,0.00,,,0.06,weatherlink.com 1.10,2013-09-08 02:46:00,
2013-09-07 23:01:00,64.1,58.0,29.90,NNE,13,8.0,8.0,80,0.00,,,0.06,weatherlink.com 1.10,2013-09-08 03:01:00,
2013-09-07 23:16:00,63.4,57.0,29.91,NNW,328,0.0,7.0,80,0.00,,,0.06,weatherlink.com 1.10,2013-09-08 03:16:00,
2013-09-07 23:31:00,61.1,57.0,29.91,West,269,0.0,2.0,86,0.00,,,0.06,weatherlink.com 1.10,2013-09-08 03:31:00,
2013-09-07 23:47:00,58.9,56.0,29.92,WSW,243,0.0,1.0,89,0.00,,,0.06,weatherlink.com 1.10,2013-09-08 03:47:00,